createdAt,value
2022-12-03T00:03:00.361Z,14.30
2022-12-03T00:09:05.457Z,20.33
2022-12-03T00:15:08.222Z,17.33
2022-12-03T00:21:10.707Z,15.07
2022-12-03T00:27:13.236Z,13.80
2022-12-03T00:33:15.650Z,14.37
2022-12-03T00:39:21.401Z,12.70
2022-12-03T00:45:23.610Z,14.07
2022-12-03T00:51:26.031Z,13.73
2022-12-03T00:57:30.538Z,12.83
2022-12-03T01:03:35.356Z,11.30
2022-12-03T01:09:37.518Z,11.13
2022-12-03T01:15:39.974Z,14.60
2022-12-03T01:21:45.178Z,25.43
2022-12-03T01:27:47.980Z,16.07
2022-12-03T01:33:50.425Z,14.93
2022-12-03T01:39:57.781Z,11.97
2022-12-03T01:46:00.313Z,12.23
2022-12-03T01:52:02.778Z,8.57
2022-12-03T01:58:05.288Z,10.97
2022-12-03T02:04:09.764Z,12.07
2022-12-03T02:10:16.202Z,11.10
2022-12-03T02:16:22.475Z,12.87
2022-12-03T02:22:56.334Z,12.27
2022-12-03T02:28:58.811Z,12.00
2022-12-03T02:35:02.741Z,12.77
2022-12-03T02:41:09.745Z,10.37
2022-12-03T02:47:12.280Z,9.73
2022-12-03T02:53:19.752Z,11.30
2022-12-03T02:59:22.220Z,11.13
2022-12-03T03:05:28.042Z,11.03
2022-12-03T03:11:30.151Z,11.73
2022-12-03T03:17:33.610Z,11.57
2022-12-03T03:23:36.084Z,10.57
2022-12-03T03:29:38.595Z,10.53
2022-12-03T03:35:42.021Z,10.10
2022-12-03T03:41:46.503Z,10.30
2022-12-03T03:47:51.083Z,10.27
2022-12-03T03:53:58.992Z,9.27
2022-12-03T04:00:10.227Z,10.47
2022-12-03T04:06:13.517Z,9.10
2022-12-03T04:12:34.065Z,9.77
2022-12-03T04:18:45.552Z,8.40
2022-12-03T04:24:48.030Z,9.40
2022-12-03T04:30:52.534Z,9.77
2022-12-03T04:37:00.926Z,10.27
2022-12-03T04:43:08.816Z,11.93
2022-12-03T04:49:13.997Z,10.07
2022-12-03T04:55:16.435Z,9.87
2022-12-03T05:01:18.912Z,10.50
2022-12-03T05:07:21.383Z,11.03
2022-12-03T05:13:25.851Z,10.47
2022-12-03T05:19:48.377Z,8.90
2022-12-03T05:25:52.874Z,17.13
2022-12-03T05:31:57.183Z,15.77
2022-12-03T05:37:59.872Z,13.30
2022-12-03T05:44:02.308Z,11.60
2022-12-03T05:50:07.599Z,11.93
2022-12-03T05:56:13.022Z,11.83
2022-12-03T06:02:17.921Z,13.20
2022-12-03T06:08:20.178Z,15.13
2022-12-03T06:14:24.737Z,18.20
2022-12-03T06:20:29.205Z,32.17
2022-12-03T06:26:31.715Z,17.77
2022-12-03T06:32:34.134Z,17.57
2022-12-03T06:38:36.602Z,15.83
2022-12-03T06:44:43.543Z,13.37
2022-12-03T06:50:45.660Z,13.47
2022-12-03T06:56:53.957Z,13.50
2022-12-03T07:02:56.642Z,14.27
2022-12-03T07:08:59.038Z,17.93
2022-12-03T07:15:04.725Z,15.97
2022-12-03T07:21:06.997Z,16.70
2022-12-03T07:27:12.491Z,20.30
2022-12-03T07:33:16.011Z,32.33
2022-12-03T07:39:21.468Z,25.47
2022-12-03T07:45:27.145Z,34.70
2022-12-03T07:51:34.317Z,17.83
2022-12-03T07:57:36.931Z,16.10
2022-12-03T08:03:40.593Z,22.83
2022-12-03T08:09:47.752Z,17.13
2022-12-03T08:16:06.583Z,14.57
2022-12-03T08:22:45.104Z,13.67
2022-12-03T08:28:45.751Z,18.27
2022-12-03T08:34:48.039Z,16.53
2022-12-03T08:40:53.506Z,16.23
2022-12-03T08:47:15.332Z,17.60
2022-12-03T08:54:01.930Z,14.10
2022-12-03T09:00:24.510Z,14.57
2022-12-03T09:06:28.712Z,19.70
2022-12-03T09:12:31.281Z,16.57
2022-12-03T09:18:36.390Z,16.13
2022-12-03T09:24:41.288Z,19.13
2022-12-03T09:30:43.716Z,25.80
2022-12-03T09:36:48.107Z,16.10
2022-12-03T09:42:53.693Z,15.87
2022-12-03T09:49:06.621Z,16.03
2022-12-03T09:55:22.695Z,14.53
2022-12-03T10:01:35.561Z,15.40
2022-12-03T10:07:38.691Z,15.20
2022-12-03T10:13:42.147Z,16.30
2022-12-03T10:19:45.636Z,14.10
2022-12-03T10:25:56.140Z,15.43
2022-12-03T10:32:06.680Z,14.70
2022-12-03T10:38:32.653Z,15.53
2022-12-03T10:44:37.811Z,16.90
2022-12-03T10:51:02.456Z,13.73
2022-12-03T10:57:05.873Z,13.27
2022-12-03T11:03:22.299Z,14.33
2022-12-03T11:09:29.902Z,12.90
2022-12-03T11:15:54.716Z,13.47
2022-12-03T11:22:08.980Z,15.50
2022-12-03T11:28:13.257Z,14.87
2022-12-03T11:34:39.751Z,13.50
2022-12-03T11:41:07.570Z,12.47
2022-12-03T11:47:18.154Z,12.07
2022-12-03T11:53:27.600Z,13.63
2022-12-03T11:59:33.125Z,12.70
2022-12-03T12:06:09.708Z,12.23
2022-12-03T12:12:29.230Z,11.47
2022-12-03T12:18:35.701Z,12.33
2022-12-03T12:24:47.216Z,12.30
2022-12-03T12:30:49.687Z,12.90
2022-12-03T12:36:53.144Z,11.60
2022-12-03T12:42:58.662Z,11.73
2022-12-03T12:49:03.001Z,12.03
2022-12-03T12:55:10.677Z,20.00
2022-12-03T13:01:21.181Z,13.67
2022-12-03T13:07:23.638Z,13.60
2022-12-03T13:13:44.200Z,19.77
2022-12-03T13:20:00.790Z,16.90
2022-12-03T13:26:36.026Z,14.63
2022-12-03T13:32:44.360Z,14.40
2022-12-03T13:38:53.278Z,12.30
2022-12-03T13:44:57.855Z,13.10
2022-12-03T13:51:14.374Z,14.57
2022-12-03T13:57:18.450Z,10.40
2022-12-03T14:03:24.359Z,13.90
2022-12-03T14:09:26.822Z,13.80
2022-12-03T14:15:29.339Z,12.37
2022-12-03T14:21:31.761Z,11.10
2022-12-03T14:27:35.564Z,12.63
2022-12-03T14:33:37.710Z,12.67
2022-12-03T14:39:40.185Z,11.67
2022-12-03T14:45:45.702Z,12.90
2022-12-03T14:51:50.044Z,21.50
2022-12-03T14:57:52.631Z,15.63
2022-12-03T15:03:55.068Z,12.87
2022-12-03T15:09:57.804Z,12.50
2022-12-03T15:16:08.108Z,13.17
2022-12-03T15:22:10.572Z,13.83
2022-12-03T15:28:13.043Z,11.40
2022-12-03T15:34:21.830Z,13.93
2022-12-03T15:40:26.031Z,12.83
2022-12-03T15:46:29.627Z,14.97
2022-12-03T15:52:34.003Z,16.73
2022-12-03T15:58:39.490Z,17.47
2022-12-03T16:04:41.936Z,13.63
2022-12-03T16:10:44.413Z,14.80
2022-12-03T16:16:47.882Z,14.67
2022-12-03T16:22:50.389Z,14.30
2022-12-03T16:28:53.822Z,14.07
2022-12-03T16:34:59.339Z,12.97
2022-12-03T16:41:02.776Z,14.67
2022-12-03T16:47:05.265Z,13.20
2022-12-03T16:53:07.738Z,10.17
2022-12-03T16:59:10.236Z,10.70
2022-12-03T17:05:17.692Z,12.30
2022-12-03T17:11:21.789Z,11.20
2022-12-03T17:17:25.676Z,12.67
2022-12-03T17:23:28.145Z,13.07
2022-12-03T17:29:30.672Z,16.10
2022-12-03T17:35:34.835Z,14.37
2022-12-03T17:41:42.861Z,13.17
2022-12-03T17:47:45.054Z,13.77
2022-12-03T17:53:47.505Z,16.50
2022-12-03T18:00:01.333Z,17.00
2022-12-03T18:06:07.732Z,14.27
2022-12-03T18:12:16.024Z,15.20
2022-12-03T18:18:18.518Z,15.97
2022-12-03T18:24:28.016Z,14.67
2022-12-03T18:30:30.495Z,14.43
2022-12-03T18:36:37.001Z,14.77
2022-12-03T18:42:39.505Z,14.37
2022-12-03T18:48:46.984Z,13.57
2022-12-03T18:54:50.528Z,11.77
2022-12-03T19:00:56.039Z,11.97
2022-12-03T19:06:58.401Z,10.77
2022-12-03T19:13:00.870Z,11.87
2022-12-03T19:19:09.336Z,10.73
2022-12-03T19:25:14.016Z,10.00
2022-12-03T19:31:18.324Z,11.20
2022-12-03T19:37:20.807Z,11.70
2022-12-03T19:43:26.295Z,10.80
2022-12-03T19:49:28.721Z,9.77
2022-12-03T19:55:31.195Z,11.13
2022-12-03T20:01:41.786Z,12.17
2022-12-03T20:07:44.235Z,9.73
2022-12-03T20:13:50.078Z,9.43
2022-12-03T20:19:53.582Z,9.03
2022-12-03T20:25:56.620Z,8.50
2022-12-03T20:32:00.226Z,9.03
2022-12-03T20:38:04.560Z,9.13
2022-12-03T20:44:08.120Z,11.83
2022-12-03T20:50:10.603Z,14.30
2022-12-03T20:56:22.111Z,13.93
2022-12-03T21:02:24.704Z,16.93
2022-12-03T21:08:40.576Z,18.20
2022-12-03T21:14:44.572Z,17.27
2022-12-03T21:20:49.039Z,16.73
2022-12-03T21:26:51.540Z,14.90
2022-12-03T21:32:54.019Z,13.83
2022-12-03T21:38:59.473Z,14.90
2022-12-03T21:45:04.926Z,13.83
2022-12-03T21:51:10.440Z,12.67
2022-12-03T21:57:12.938Z,14.40
2022-12-03T22:03:15.481Z,14.70
2022-12-03T22:09:20.542Z,14.73
2022-12-03T22:15:27.336Z,15.03
2022-12-03T22:21:33.051Z,15.00
2022-12-03T22:27:36.348Z,14.47
2022-12-03T22:33:39.824Z,16.20
2022-12-03T22:39:42.305Z,14.77
2022-12-03T22:45:44.734Z,16.23
2022-12-03T22:51:48.189Z,19.27
2022-12-03T22:57:50.632Z,20.37
2022-12-03T23:03:55.580Z,16.97
2022-12-03T23:09:58.933Z,16.77
2022-12-03T23:16:04.192Z,16.73
2022-12-03T23:22:06.534Z,20.10
2022-12-03T23:28:11.013Z,17.03
2022-12-03T23:34:16.098Z,17.80
2022-12-03T23:40:18.996Z,15.77
2022-12-03T23:46:28.191Z,15.47
2022-12-03T23:52:30.978Z,14.40
2022-12-03T23:58:34.434Z,19.10
